Time;durP1;ratioP1;P1;durP2;ratioP2;P2;SDS_P1;SDS_P2;PMS_P1;PMS_P2;Temp;Humidity;BMP_temperature;BMP_pressure;BME280_temperature;BME280_humidity;BME280_pressure;Samples;Min_cycle;Max_cycle;Signal;HPM_P1;HPM_P2
2024/01/09 00:00:18;;;;;;;10.60;3.78;;;-1.80;78.70;;;;;;9174383;19;20022;-65
2024/01/09 00:03:25;;;;;;;6.85;3.03;;;-1.80;78.70;;;;;;9175315;19;20018;-64
2024/01/09 00:06:33;;;;;;;5.32;2.92;;;-1.90;78.70;;;;;;9174974;19;20018;-68
2024/01/09 00:09:41;;;;;;;5.70;3.22;;;-1.90;78.60;;;;;;9172661;19;20018;-65
2024/01/09 00:12:47;;;;;;;6.28;3.30;;;-1.90;78.60;;;;;;9173268;19;20089;-65
2024/01/09 00:15:54;;;;;;;5.32;3.15;;;-1.90;78.60;;;;;;9173815;19;20023;-64
2024/01/09 00:19:00;;;;;;;7.53;3.28;;;-1.90;78.60;;;;;;9175696;19;20518;-65
2024/01/09 00:22:10;;;;;;;6.07;3.13;;;-1.90;78.70;;;;;;9183607;19;20364;-65
2024/01/09 00:25:18;;;;;;;6.18;3.30;;;-1.90;78.70;;;;;;9182961;19;20070;-66
2024/01/09 00:28:25;;;;;;;8.55;3.50;;;-1.90;78.60;;;;;;9181775;19;20018;-63
2024/01/09 00:31:31;;;;;;;6.43;3.20;;;-1.90;78.60;;;;;;9182902;19;20373;-63
2024/01/09 00:34:39;;;;;;;5.70;2.97;;;-1.90;78.70;;;;;;9180637;19;20022;-67
2024/01/09 00:37:47;;;;;;;4.32;2.20;;;-1.90;78.70;;;;;;9183619;19;20021;-69
2024/01/09 00:40:55;;;;;;;8.75;3.22;;;-1.90;78.60;;;;;;9182139;19;20127;-70
2024/01/09 00:44:00;;;;;;;10.30;3.08;;;-2.00;78.60;;;;;;9182995;19;20488;-70
2024/01/09 00:47:08;;;;;;;7.07;3.08;;;-2.00;78.60;;;;;;9181796;19;20014;-69
2024/01/09 00:50:13;;;;;;;9.70;3.70;;;-2.00;78.70;;;;;;9181232;19;20026;-68
2024/01/09 00:53:23;;;;;;;6.10;3.03;;;-2.00;78.70;;;;;;9182850;19;20353;-69
2024/01/09 00:56:29;;;;;;;8.27;3.88;;;-2.00;78.70;;;;;;9177403;19;20015;-70
2024/01/09 00:59:37;;;;;;;10.10;3.80;;;-2.10;78.60;;;;;;9179075;19;20014;-69
2024/01/09 01:02:43;;;;;;;5.65;3.15;;;-2.10;78.70;;;;;;9179794;19;20052;-69
2024/01/09 01:05:51;;;;;;;7.82;3.45;;;-2.10;79.30;;;;;;9180799;19;20019;-69
2024/01/09 01:08:59;;;;;;;6.45;3.38;;;-2.10;78.70;;;;;;9182075;19;20106;-69
2024/01/09 01:12:07;;;;;;;5.80;3.20;;;-2.10;78.70;;;;;;9181629;19;20023;-69
2024/01/09 01:15:13;;;;;;;8.05;2.88;;;-2.10;78.70;;;;;;9181668;19;20025;-70
2024/01/09 01:18:21;;;;;;;6.97;3.83;;;-2.20;78.60;;;;;;9179545;19;20053;-69
2024/01/09 01:21:27;;;;;;;7.82;3.38;;;-2.20;78.60;;;;;;9180823;19;20020;-69
2024/01/09 01:24:37;;;;;;;4.75;3.03;;;-2.20;78.60;;;;;;9179407;19;20018;-72
2024/01/09 01:27:42;;;;;;;7.45;3.22;;;-2.20;78.70;;;;;;9181293;19;20357;-69
2024/01/09 01:30:50;;;;;;;8.30;4.15;;;-2.30;78.70;;;;;;9174669;19;20018;-68
2024/01/09 01:33:56;;;;;;;4.07;3.05;;;-2.30;78.70;;;;;;9179665;19;20017;-69
2024/01/09 01:37:04;;;;;;;6.68;3.35;;;-2.30;78.70;;;;;;9178480;19;20014;-70
2024/01/09 01:40:18;;;;;;;8.60;3.38;;;-2.30;78.70;;;;;;9177598;19;20015;-69
2024/01/09 01:43:26;;;;;;;7.45;3.03;;;-2.30;78.70;;;;;;9180162;19;20019;-69
2024/01/09 01:46:32;;;;;;;7.93;2.75;;;-2.30;78.60;;;;;;9177642;19;20488;-70
2024/01/09 01:49:40;;;;;;;6.07;3.60;;;-2.30;78.60;;;;;;9179382;19;20018;-69
2024/01/09 01:52:47;;;;;;;6.43;3.17;;;-2.40;78.60;;;;;;9178400;19;20517;-69
2024/01/09 01:56:01;;;;;;;8.10;2.97;;;-2.40;78.60;;;;;;9170486;19;20015;-70
2024/01/09 01:59:06;;;;;;;7.28;3.85;;;-2.40;78.60;;;;;;9178063;19;20394;-69
2024/01/09 02:02:17;;;;;;;5.80;3.40;;;-2.50;78.50;;;;;;9178571;19;20022;-69
2024/01/09 02:05:25;;;;;;;6.03;3.08;;;-2.50;78.60;;;;;;9178974;19;20015;-69
2024/01/09 02:08:34;;;;;;;7.25;3.42;;;-2.50;78.60;;;;;;9177439;19;20010;-70
2024/01/09 02:11:42;;;;;;;7.88;3.17;;;-2.60;78.60;;;;;;9178047;19;20125;-70
2024/01/09 02:14:50;;;;;;;7.65;3.28;;;-2.60;78.70;;;;;;9178448;19;20034;-69
2024/01/09 02:17:56;;;;;;;7.70;3.20;;;-2.60;78.80;;;;;;9177846;19;20078;-69
2024/01/09 02:21:03;;;;;;;8.35;3.83;;;-2.70;78.80;;;;;;9178722;19;20019;-69
2024/01/09 02:24:09;;;;;;;6.18;3.22;;;-2.70;78.70;;;;;;9177221;19;20044;-70
2024/01/09 02:27:27;;;;;;;6.50;3.67;;;-2.70;78.70;;;;;;9175953;19;20366;-69
2024/01/09 02:30:36;;;;;;;4.75;3.05;;;-2.70;78.80;;;;;;9178339;19;20015;-69
2024/01/09 02:33:44;;;;;;;7.25;3.13;;;-2.80;78.80;;;;;;9176491;19;20024;-69
2024/01/09 02:36:50;;;;;;;6.38;3.38;;;-2.80;78.70;;;;;;9177059;19;20010;-70
2024/01/09 02:40:03;;;;;;;5.82;3.22;;;-2.80;78.80;;;;;;9175373;19;20014;-68
2024/01/09 02:43:09;;;;;;;5.40;3.00;;;-2.90;78.70;;;;;;9177230;19;20040;-70
2024/01/09 02:46:20;;;;;;;5.38;3.15;;;-2.90;78.80;;;;;;9177731;19;20632;-69
2024/01/09 02:49:25;;;;;;;13.15;3.65;;;-2.90;78.80;;;;;;9175782;19;20023;-69
2024/01/09 02:52:33;;;;;;;5.45;3.00;;;-2.90;78.80;;;;;;9176604;19;20021;-69
2024/01/09 02:55:38;;;;;;;9.05;4.05;;;-2.90;78.80;;;;;;9172759;19;20959;-70
2024/01/09 02:58:46;;;;;;;3.42;2.65;;;-3.00;78.70;;;;;;9177882;19;20018;-65
2024/01/09 03:01:55;;;;;;;4.82;2.95;;;-3.00;79.30;;;;;;9178306;19;20014;-67
2024/01/09 03:05:03;;;;;;;5.97;3.10;;;-3.00;78.70;;;;;;9176536;19;20014;-64
2024/01/09 03:08:10;;;;;;;7.15;3.30;;;-3.00;78.70;;;;;;9177943;19;20030;-65
2024/01/09 03:11:18;;;;;;;6.65;3.10;;;-3.00;78.70;;;;;;9178229;19;20499;-66
2024/01/09 03:14:23;;;;;;;8.05;3.28;;;-3.10;78.70;;;;;;9177924;19;20010;-66
2024/01/09 03:17:34;;;;;;;5.78;3.35;;;-3.10;78.70;;;;;;9178768;19;20015;-66
2024/01/09 03:20:40;;;;;;;6.30;3.30;;;-3.10;78.70;;;;;;9175880;19;20018;-66
2024/01/09 03:23:50;;;;;;;5.68;3.17;;;-3.10;78.70;;;;;;9176937;19;20023;-66
2024/01/09 03:26:56;;;;;;;4.45;2.85;;;-3.10;78.70;;;;;;9175367;19;20101;-66
2024/01/09 03:30:03;;;;;;;5.63;3.33;;;-3.10;78.70;;;;;;9176733;19;20024;-66
2024/01/09 03:33:13;;;;;;;5.65;2.90;;;-3.10;78.60;;;;;;9177891;19;20649;-65
2024/01/09 03:36:23;;;;;;;5.85;3.28;;;-3.10;78.50;;;;;;9175799;19;20018;-66
2024/01/09 03:39:28;;;;;;;7.65;3.40;;;-3.20;78.40;;;;;;9177963;19;20021;-66
2024/01/09 03:42:36;;;;;;;8.18;3.70;;;-3.20;78.50;;;;;;9177738;19;20018;-64
2024/01/09 03:45:42;;;;;;;9.23;3.65;;;-3.20;78.50;;;;;;9176047;19;20014;-64
2024/01/09 03:48:52;;;;;;;5.72;3.20;;;-3.20;78.50;;;;;;9175760;19;20029;-65
2024/01/09 03:51:58;;;;;;;5.68;3.33;;;-3.30;78.40;;;;;;9174801;19;20042;-67
2024/01/09 03:55:06;;;;;;;6.60;3.13;;;-3.30;78.40;;;;;;9181795;19;20382;-65
2024/01/09 03:58:13;;;;;;;6.38;3.28;;;-3.30;78.40;;;;;;9185032;19;20496;-69
2024/01/09 04:01:20;;;;;;;5.25;3.35;;;-3.30;78.40;;;;;;9180417;19;20019;-69
2024/01/09 04:04:31;;;;;;;6.22;3.25;;;-3.40;78.40;;;;;;9184826;19;20029;-65
2024/01/09 04:07:39;;;;;;;6.77;3.20;;;-3.40;78.40;;;;;;9179885;19;20026;-71
2024/01/09 04:10:44;;;;;;;6.10;3.22;;;-3.40;78.50;;;;;;9183879;19;20013;-71
2024/01/09 04:13:52;;;;;;;5.55;2.72;;;-3.50;78.40;;;;;;9183807;19;20424;-70
2024/01/09 04:16:57;;;;;;;7.20;3.28;;;-3.50;78.40;;;;;;9180890;19;20019;-72
2024/01/09 04:20:09;;;;;;;5.60;3.30;;;-3.50;78.50;;;;;;9179595;19;20398;-70
2024/01/09 04:23:14;;;;;;;6.65;3.10;;;-3.60;78.40;;;;;;9184084;19;20054;-70
2024/01/09 04:26:22;;;;;;;7.32;3.17;;;-3.60;78.40;;;;;;9180858;19;20018;-71
2024/01/09 04:29:28;;;;;;;6.55;3.25;;;-3.60;78.40;;;;;;9182461;19;20477;-72
2024/01/09 04:32:35;;;;;;;6.57;3.10;;;-3.60;78.40;;;;;;9182910;19;20022;-73
2024/01/09 04:35:45;;;;;;;7.95;3.53;;;-3.60;78.40;;;;;;9183000;19;20014;-70
2024/01/09 04:38:52;;;;;;;5.38;3.67;;;-3.60;78.40;;;;;;9182382;19;20018;-71
2024/01/09 04:41:59;;;;;;;7.07;3.50;;;-3.60;78.90;;;;;;9179461;19;20392;-70
2024/01/09 04:45:07;;;;;;;12.27;4.00;;;-3.60;78.30;;;;;;9182939;19;20019;-70
2024/01/09 04:48:13;;;;;;;8.63;4.03;;;-3.70;78.20;;;;;;9181206;19;20042;-70
2024/01/09 04:51:23;;;;;;;8.18;3.47;;;-3.70;78.30;;;;;;9182129;19;20014;-70
2024/01/09 04:54:29;;;;;;;13.13;3.55;;;-3.70;78.30;;;;;;9181467;19;20029;-70
2024/01/09 04:57:36;;;;;;;7.47;3.30;;;-3.70;78.30;;;;;;9177631;19;20019;-71
2024/01/09 05:00:42;;;;;;;8.48;3.17;;;-3.70;78.20;;;;;;9179309;19;20639;-70
2024/01/09 05:03:50;;;;;;;7.88;3.80;;;-3.80;78.20;;;;;;9181216;19;20498;-70
2024/01/09 05:06:59;;;;;;;6.45;3.55;;;-3.80;78.20;;;;;;9179482;19;20021;-72
2024/01/09 05:10:13;;;;;;;9.63;3.50;;;-3.80;78.20;;;;;;9181220;19;20025;-71
2024/01/09 05:13:21;;;;;;;8.20;3.65;;;-3.80;78.30;;;;;;9180535;19;20103;-71
2024/01/09 05:16:30;;;;;;;5.90;3.40;;;-3.80;78.20;;;;;;9179148;19;20018;-71
2024/01/09 05:19:35;;;;;;;6.05;3.30;;;-3.80;78.30;;;;;;9178755;19;20033;-71
2024/01/09 05:22:45;;;;;;;6.70;3.47;;;-3.80;78.20;;;;;;9178794;19;20011;-71
2024/01/09 05:25:51;;;;;;;6.10;3.45;;;-3.80;78.20;;;;;;9180429;19;20875;-71
2024/01/09 05:29:00;;;;;;;6.57;3.55;;;-3.80;78.80;;;;;;9178548;19;20018;-72
2024/01/09 05:32:06;;;;;;;10.88;3.60;;;-3.90;78.10;;;;;;9179990;19;20029;-72
2024/01/09 05:35:15;;;;;;;6.72;3.30;;;-3.90;78.10;;;;;;9179837;19;20429;-72
2024/01/09 05:38:23;;;;;;;6.88;3.10;;;-3.90;78.20;;;;;;9180370;19;20014;-72
2024/01/09 05:41:31;;;;;;;10.00;4.30;;;-3.90;78.20;;;;;;9177395;19;20037;-70
2024/01/09 05:44:37;;;;;;;10.18;4.00;;;-3.90;78.20;;;;;;9179067;19;20022;-71
2024/01/09 05:47:44;;;;;;;7.20;3.45;;;-3.90;78.10;;;;;;9179652;19;20014;-70
2024/01/09 05:50:53;;;;;;;7.85;3.90;;;-4.00;78.10;;;;;;9178673;19;20015;-70
2024/01/09 05:54:03;;;;;;;14.15;4.38;;;-4.00;78.20;;;;;;9180327;19;20026;-70
2024/01/09 05:57:09;;;;;;;5.45;3.10;;;-3.90;78.80;;;;;;9174430;19;20010;-71
2024/01/09 06:00:18;;;;;;;10.13;4.13;;;-4.00;78.10;;;;;;9179300;19;20015;-71
2024/01/09 06:03:23;;;;;;;6.70;3.80;;;-4.00;78.10;;;;;;9178506;19;20017;-70
2024/01/09 06:06:31;;;;;;;7.35;4.00;;;-4.00;78.10;;;;;;9178199;19;20019;-70
2024/01/09 06:09:40;;;;;;;7.55;3.22;;;-4.00;78.20;;;;;;9178273;19;20014;-70
2024/01/09 06:12:47;;;;;;;7.10;3.97;;;-4.00;78.20;;;;;;9177737;19;20029;-71
2024/01/09 06:15:53;;;;;;;6.25;3.42;;;-4.00;78.10;;;;;;9174990;19;20014;-69
2024/01/09 06:19:00;;;;;;;7.00;3.30;;;-4.10;78.00;;;;;;9178626;19;20372;-70
2024/01/09 06:22:07;;;;;;;8.15;4.15;;;-4.10;78.10;;;;;;9174865;19;20018;-71
2024/01/09 06:25:17;;;;;;;9.52;4.28;;;-4.10;78.10;;;;;;9177732;19;20014;-71
2024/01/09 06:28:23;;;;;;;7.82;3.15;;;-4.10;78.10;;;;;;9176613;19;20081;-68
2024/01/09 06:31:31;;;;;;;10.10;4.32;;;-4.10;78.10;;;;;;9178342;19;20018;-69
2024/01/09 06:34:36;;;;;;;9.13;4.15;;;-4.10;78.00;;;;;;9177184;19;20066;-69
2024/01/09 06:37:45;;;;;;;7.88;4.13;;;-4.10;77.90;;;;;;9179156;19;20037;-70
2024/01/09 06:40:53;;;;;;;7.32;3.50;;;-4.10;78.00;;;;;;9176481;19;20033;-69
2024/01/09 06:44:01;;;;;;;7.85;3.40;;;-4.10;77.90;;;;;;9177988;19;20054;-70
2024/01/09 06:47:07;;;;;;;5.38;3.20;;;-4.10;77.90;;;;;;9177528;19;20025;-69
2024/01/09 06:50:15;;;;;;;8.90;3.88;;;-4.10;77.90;;;;;;9175584;19;20034;-68
2024/01/09 06:53:37;;;;;;;7.70;3.65;;;-4.10;77.90;;;;;;9174796;19;20610;-70
2024/01/09 06:56:48;;;;;;;13.65;4.13;;;-4.10;77.80;;;;;;9172995;19;20019;-68
2024/01/09 06:59:53;;;;;;;7.97;3.70;;;-4.10;77.90;;;;;;9177559;19;20022;-68
2024/01/09 07:03:01;;;;;;;5.28;2.92;;;-4.10;77.80;;;;;;9173664;19;20015;-69
2024/01/09 07:06:07;;;;;;;6.75;3.28;;;-4.20;77.80;;;;;;9171502;19;20018;-70
2024/01/09 07:09:18;;;;;;;5.65;3.00;;;-4.20;77.80;;;;;;9174739;19;20018;-69
2024/01/09 07:12:27;;;;;;;6.20;3.38;;;-4.20;77.80;;;;;;9174111;19;20022;-69
2024/01/09 07:15:37;;;;;;;6.32;3.20;;;-4.20;77.80;;;;;;9174635;19;20022;-68
2024/01/09 07:18:42;;;;;;;11.05;4.47;;;-4.20;77.80;;;;;;9174373;19;20015;-70
2024/01/09 07:21:56;;;;;;;7.47;3.30;;;-4.20;77.80;;;;;;9171844;19;20353;-69
2024/01/09 07:25:03;;;;;;;6.40;3.22;;;-4.20;77.80;;;;;;9173278;19;20032;-71
2024/01/09 07:28:15;;;;;;;6.40;3.00;;;-4.20;77.80;;;;;;9170586;19;20011;-69
2024/01/09 07:31:20;;;;;;;7.60;3.35;;;-4.30;77.70;;;;;;9173757;19;20022;-69
2024/01/09 07:34:28;;;;;;;5.53;3.10;;;-4.30;77.80;;;;;;9172949;19;20444;-70
2024/01/09 07:37:34;;;;;;;9.30;3.42;;;-4.20;77.80;;;;;;9174782;19;20603;-69
2024/01/09 07:40:41;;;;;;;7.22;3.42;;;-4.20;77.80;;;;;;9173738;19;20017;-70
2024/01/09 07:43:49;;;;;;;6.80;3.03;;;-4.20;77.70;;;;;;9173041;19;20022;-72
2024/01/09 07:46:57;;;;;;;12.38;2.95;;;-4.30;77.70;;;;;;9175474;19;20381;-68
2024/01/09 07:50:03;;;;;;;7.78;3.55;;;-4.30;77.70;;;;;;9174525;19;20492;-69
2024/01/09 07:53:11;;;;;;;6.45;3.05;;;-4.20;77.70;;;;;;9164685;19;20472;-69
2024/01/09 07:56:17;;;;;;;6.72;3.30;;;-4.30;77.70;;;;;;9167275;19;20041;-68
2024/01/09 07:59:29;;;;;;;4.97;2.97;;;-4.30;77.60;;;;;;9173294;19;20011;-69
2024/01/09 08:02:35;;;;;;;6.95;2.92;;;-4.30;77.60;;;;;;9172611;19;20025;-69
2024/01/09 08:05:53;;;;;;;6.80;2.80;;;-4.30;78.20;;;;;;9174021;19;20010;-69
2024/01/09 08:08:59;;;;;;;5.88;3.00;;;-4.30;77.60;;;;;;9172624;19;20047;-70
2024/01/09 08:12:07;;;;;;;4.68;2.88;;;-4.30;77.70;;;;;;9171951;19;20385;-69
2024/01/09 08:15:16;;;;;;;4.43;2.80;;;-4.30;77.60;;;;;;9171927;19;20023;-72
2024/01/09 08:18:25;;;;;;;4.88;2.58;;;-4.30;78.20;;;;;;9174059;19;20018;-69
2024/01/09 08:21:32;;;;;;;10.10;4.13;;;-4.30;77.60;;;;;;9175226;19;20093;-68
2024/01/09 08:24:42;;;;;;;6.72;3.53;;;-4.30;77.60;;;;;;9174097;19;20022;-67
2024/01/09 08:27:48;;;;;;;12.95;3.42;;;-4.30;77.60;;;;;;9173455;19;20025;-68
2024/01/09 08:31:06;;;;;;;8.27;3.38;;;-4.30;77.50;;;;;;9171149;19;20563;-67
2024/01/09 08:34:12;;;;;;;9.32;2.90;;;-4.30;77.50;;;;;;9173326;19;20737;-67
2024/01/09 08:37:20;;;;;;;7.50;2.78;;;-4.30;77.60;;;;;;9172948;19;20094;-68
2024/01/09 08:40:26;;;;;;;6.28;3.00;;;-4.30;77.60;;;;;;9181620;19;20014;-67
2024/01/09 08:43:37;;;;;;;9.55;3.78;;;-4.20;77.60;;;;;;9180130;19;20126;-67
2024/01/09 08:46:45;;;;;;;8.77;3.25;;;-4.30;77.50;;;;;;9181825;19;20011;-67
2024/01/09 08:49:53;;;;;;;6.60;3.15;;;-4.20;77.50;;;;;;9182243;19;20028;-74
2024/01/09 08:53:06;;;;;;;4.72;2.65;;;-4.20;77.50;;;;;;9179585;19;20019;-75
2024/01/09 08:56:14;;;;;;;10.77;3.75;;;-4.10;77.50;;;;;;9177145;19;20330;-74
2024/01/09 08:59:20;;;;;;;6.28;3.13;;;-4.10;77.50;;;;;;9180252;19;20014;-77
2024/01/09 09:02:34;;;;;;;5.25;2.90;;;-4.10;77.40;;;;;;9177387;19;20023;-77
2024/01/09 09:05:40;;;;;;;6.88;3.40;;;-4.10;77.50;;;;;;9180372;19;20476;-75
2024/01/09 09:08:48;;;;;;;6.53;3.35;;;-4.00;77.50;;;;;;9179949;19;20022;-79
2024/01/09 09:11:55;;;;;;;5.15;2.50;;;-4.00;77.50;;;;;;9179654;19;20086;-76
2024/01/09 09:15:03;;;;;;;5.97;3.35;;;-4.00;77.50;;;;;;9180140;19;20018;-75
2024/01/09 09:18:11;;;;;;;4.88;2.67;;;-3.90;77.50;;;;;;9177932;19;20490;-74
2024/01/09 09:21:20;;;;;;;5.47;2.70;;;-3.90;77.40;;;;;;9180103;19;20026;-76
2024/01/09 09:24:25;;;;;;;4.97;2.70;;;-3.90;77.40;;;;;;9177963;19;20030;-78
2024/01/09 09:27:33;;;;;;;7.70;2.70;;;-3.90;77.30;;;;;;9181031;19;20024;-77
2024/01/09 09:30:39;;;;;;;6.22;2.88;;;-3.80;77.40;;;;;;9181779;19;20061;-76
2024/01/09 09:33:49;;;;;;;7.30;2.85;;;-3.80;77.30;;;;;;9178970;19;20487;-75
2024/01/09 09:36:55;;;;;;;5.80;2.80;;;-3.70;77.40;;;;;;9181533;19;20540;-79
2024/01/09 09:40:03;;;;;;;6.93;2.70;;;-3.70;77.30;;;;;;9178393;19;20014;-76
2024/01/09 09:43:16;;;;;;;8.35;2.95;;;-3.60;78.00;;;;;;9180736;19;20479;-76
2024/01/09 09:46:29;;;;;;;4.45;2.88;;;-3.60;77.40;;;;;;9184645;19;21176;-75
2024/01/09 09:49:39;;;;;;;4.30;2.67;;;-3.50;77.30;;;;;;9183513;19;20014;-73
2024/01/09 09:52:48;;;;;;;6.77;2.57;;;;;;;;;;9183301;19;20361;-72
2024/01/09 09:55:54;;;;;;;4.35;2.55;;;-3.30;81.40;;;;;;9171202;19;20023;-78
2024/01/09 09:59:02;;;;;;;6.90;2.97;;;-3.20;80.70;;;;;;9172609;19;20029;-71
2024/01/09 10:02:13;;;;;;;4.57;2.60;;;-3.30;77.20;;;;;;9175993;19;20511;-70
2024/01/09 10:05:25;;;;;;;6.45;2.55;;;-3.30;77.20;;;;;;9178376;19;20018;-68
2024/01/09 10:08:35;;;;;;;4.90;2.17;;;-3.20;77.30;;;;;;9176148;19;20487;-70
2024/01/09 10:11:42;;;;;;;11.48;2.88;;;-3.20;77.20;;;;;;9178386;19;20023;-69
2024/01/09 10:15:17;;;;;;;6.82;2.70;;;-3.10;77.30;;;;;;9178545;19;20037;-71
2024/01/09 10:18:25;;;;;;;4.85;2.63;;;-3.00;77.30;;;;;;9175832;19;20354;-71
2024/01/09 10:21:34;;;;;;;5.35;2.75;;;-2.80;77.50;;;;;;9176356;19;20056;-69
2024/01/09 10:24:43;;;;;;;6.10;3.25;;;-2.60;77.60;;;;;;9176206;19;20384;-69
2024/01/09 10:27:49;;;;;;;8.13;2.88;;;-2.50;77.40;;;;;;9177689;19;20082;-69
2024/01/09 10:30:56;;;;;;;6.30;2.70;;;-2.30;77.40;;;;;;9178562;19;20361;-68
2024/01/09 10:34:03;;;;;;;6.10;2.50;;;-2.10;77.40;;;;;;9177348;19;20019;-69
2024/01/09 10:37:16;;;;;;;6.65;2.70;;;-2.00;77.20;;;;;;9177316;19;20018;-71
2024/01/09 10:40:37;;;;;;;6.72;2.53;;;-1.90;77.60;;;;;;9177969;19;20014;-70
2024/01/09 10:43:45;;;;;;;;;;;-1.80;76.90;;;;;;9176984;19;20019;-68
2024/01/09 10:46:52;;;;;;;7.55;2.40;;;-1.70;76.90;;;;;;9175664;19;19923;-69
2024/01/09 10:50:05;;;;;;;6.07;2.70;;;-1.70;76.80;;;;;;9175745;19;20026;-72
2024/01/09 10:53:14;;;;;;;7.75;2.85;;;-1.60;76.70;;;;;;9172609;19;20078;-69
2024/01/09 10:56:24;;;;;;;4.00;2.60;;;-1.60;76.70;;;;;;9171124;19;20022;-69
2024/01/09 10:59:33;;;;;;;5.70;2.53;;;-1.60;76.70;;;;;;9174759;19;20052;-69
2024/01/09 11:02:41;;;;;;;4.53;2.05;;;-1.50;76.60;;;;;;9174797;19;20018;-75
2024/01/09 11:05:47;;;;;;;5.00;2.25;;;-1.50;76.50;;;;;;9174529;19;20018;-70
2024/01/09 11:09:00;;;;;;;7.63;2.65;;;-1.50;76.50;;;;;;9177759;19;20479;-71
2024/01/09 11:12:06;;;;;;;5.72;2.72;;;-1.50;76.40;;;;;;9175328;19;20017;-69
2024/01/09 11:15:20;;;;;;;7.03;2.70;;;-1.50;76.40;;;;;;9170908;19;20062;-66
2024/01/09 11:18:27;;;;;;;4.88;2.53;;;-1.40;76.40;;;;;;9173105;19;20018;-68
2024/01/09 11:21:39;;;;;;;6.32;2.58;;;-1.40;76.40;;;;;;9176147;19;20630;-67
2024/01/09 11:24:47;;;;;;;4.70;2.38;;;-1.40;76.40;;;;;;9174341;19;20421;-68
2024/01/09 11:27:58;;;;;;;5.70;2.47;;;-1.40;76.20;;;;;;9173661;19;20010;-68
2024/01/09 11:31:08;;;;;;;6.50;2.10;;;-1.40;76.20;;;;;;9175395;19;20007;-68
2024/01/09 11:34:29;;;;;;;5.15;2.50;;;-1.30;76.20;;;;;;9171284;19;20018;-67
2024/01/09 11:37:35;;;;;;;4.63;2.63;;;-1.30;76.00;;;;;;9171982;19;20049;-67
2024/01/09 11:40:47;;;;;;;7.15;2.85;;;-1.30;76.10;;;;;;9173701;19;20018;-67
2024/01/09 11:44:04;;;;;;;4.38;2.33;;;-1.30;76.00;;;;;;9170811;19;20126;-67
2024/01/09 11:47:12;;;;;;;8.00;2.80;;;-1.30;76.00;;;;;;9174097;19;20007;-68
2024/01/09 11:50:18;;;;;;;6.10;2.53;;;-1.20;76.00;;;;;;9171269;19;20486;-67
2024/01/09 11:53:26;;;;;;;4.90;2.78;;;-1.20;76.50;;;;;;9173880;19;20661;-66
2024/01/09 11:56:34;;;;;;;4.90;2.72;;;-1.10;75.90;;;;;;9168155;19;20015;-68
2024/01/09 11:59:43;;;;;;;5.85;2.58;;;-1.10;75.80;;;;;;9168933;19;20006;-68
2024/01/09 12:02:49;;;;;;;5.88;2.90;;;-1.10;75.70;;;;;;9171217;19;20879;-67
2024/01/09 12:05:58;;;;;;;5.38;2.25;;;-1.10;75.70;;;;;;9168375;19;20018;-68
2024/01/09 12:09:03;;;;;;;3.90;2.30;;;-1.00;75.70;;;;;;9173263;19;20018;-70
2024/01/09 12:12:23;;;;;;;7.57;2.05;;;-1.00;75.60;;;;;;9172487;19;20011;-67
2024/01/09 12:15:29;;;;;;;5.40;2.95;;;-0.90;75.60;;;;;;9181263;19;20014;-70
2024/01/09 12:18:49;;;;;;;7.30;2.70;;;-0.90;75.60;;;;;;9179202;19;20086;-72
2024/01/09 12:22:02;;;;;;;8.90;2.58;;;-0.90;75.50;;;;;;9180746;19;20025;-71
2024/01/09 12:25:11;;;;;;;5.68;2.83;;;-0.90;75.60;;;;;;9179848;19;20483;-71
2024/01/09 12:28:22;;;;;;;6.30;2.38;;;-0.80;75.60;;;;;;9178791;19;20014;-73
2024/01/09 12:31:29;;;;;;;6.00;2.17;;;-0.80;75.50;;;;;;9181223;19;20014;-71
2024/01/09 12:34:35;;;;;;;4.97;2.60;;;-0.80;75.40;;;;;;9179189;19;20034;-70
2024/01/09 12:37:43;;;;;;;3.88;2.22;;;-0.70;75.40;;;;;;9177663;19;20013;-71
2024/01/09 12:40:49;;;;;;;7.10;2.90;;;-0.70;75.40;;;;;;9178781;19;20014;-70
2024/01/09 12:44:11;;;;;;;4.03;2.35;;;-0.70;75.30;;;;;;9179060;19;20629;-72
2024/01/09 12:47:17;;;;;;;3.97;2.00;;;-0.70;75.10;;;;;;9156593;19;20015;-70
2024/01/09 12:50:29;;;;;;;3.78;2.10;;;-0.60;75.30;;;;;;9157270;19;20794;-71
2024/01/09 12:53:37;;;;;;;6.00;2.47;;;-0.60;75.20;;;;;;9173510;19;20055;-71
2024/01/09 12:56:45;;;;;;;9.35;3.00;;;-0.60;75.10;;;;;;9176830;19;20025;-71
2024/01/09 12:59:53;;;;;;;6.82;2.28;;;-0.60;75.10;;;;;;9180343;19;20045;-70
2024/01/09 13:03:01;;;;;;;4.53;2.40;;;-0.50;75.10;;;;;;9179861;19;20018;-71
2024/01/09 13:06:07;;;;;;;5.25;2.30;;;-0.50;75.10;;;;;;9172651;19;20569;-70
2024/01/09 13:09:16;;;;;;;7.63;2.75;;;-0.50;75.00;;;;;;9174154;19;20022;-71
2024/01/09 13:12:21;;;;;;;5.25;2.95;;;-0.50;74.90;;;;;;9177638;19;20045;-70
2024/01/09 13:15:32;;;;;;;4.50;2.15;;;-0.40;75.00;;;;;;9181432;19;20058;-71
2024/01/09 13:18:37;;;;;;;4.25;2.17;;;-0.40;75.50;;;;;;9181203;19;20018;-70
2024/01/09 13:21:45;;;;;;;3.35;2.13;;;-0.40;74.80;;;;;;9180596;19;20011;-71
2024/01/09 13:24:55;;;;;;;4.32;2.95;;;-0.40;74.80;;;;;;9178342;19;20018;-71
2024/01/09 13:28:02;;;;;;;5.68;2.40;;;-0.40;74.70;;;;;;9180586;19;20029;-71
2024/01/09 13:31:12;;;;;;;6.03;2.58;;;-0.30;74.80;;;;;;9181002;19;20467;-71
2024/01/09 13:34:19;;;;;;;2.80;1.92;;;-0.30;74.70;;;;;;9179768;19;20374;-71
2024/01/09 13:37:25;;;;;;;4.05;2.40;;;-0.30;74.60;;;;;;9180038;19;20415;-71
2024/01/09 13:40:33;;;;;;;4.63;1.92;;;-0.30;74.60;;;;;;9177697;19;20389;-72
2024/01/09 13:43:39;;;;;;;3.97;2.13;;;-0.30;74.50;;;;;;9180834;19;20015;-71
2024/01/09 13:46:50;;;;;;;4.45;2.22;;;-0.30;74.50;;;;;;9178129;19;20018;-71
2024/01/09 13:49:56;;;;;;;6.30;2.15;;;-0.20;74.50;;;;;;9178924;19;20078;-71
2024/01/09 13:53:07;;;;;;;5.80;2.50;;;-0.20;74.40;;;;;;9177677;19;20018;-74
2024/01/09 13:56:15;;;;;;;3.80;2.45;;;-0.20;74.40;;;;;;9175039;19;20498;-71
2024/01/09 13:59:24;;;;;;;4.00;2.20;;;-0.20;74.40;;;;;;9178744;19;20015;-71
2024/01/09 14:02:32;;;;;;;4.35;2.40;;;-0.20;74.30;;;;;;9175879;19;20014;-71
2024/01/09 14:05:40;;;;;;;10.23;1.80;;;-0.20;74.30;;;;;;9175861;19;20022;-70
2024/01/09 14:08:46;;;;;;;6.22;2.38;;;-0.20;74.20;;;;;;9176415;19;20015;-71
2024/01/09 14:11:54;;;;;;;3.25;1.80;;;-0.10;74.80;;;;;;9172441;19;20014;-69
2024/01/09 14:14:59;;;;;;;3.83;2.17;;;-0.10;74.20;;;;;;9176149;19;20018;-69
2024/01/09 14:18:10;;;;;;;3.58;2.00;;;-0.10;74.10;;;;;;9175962;19;20013;-70
2024/01/09 14:21:16;;;;;;;3.90;2.08;;;-0.10;74.10;;;;;;9177830;19;20544;-69
2024/01/09 14:24:23;;;;;;;3.03;2.00;;;-0.10;74.00;;;;;;9177639;19;20015;-69
2024/01/09 14:27:29;;;;;;;4.32;2.08;;;-0.10;73.90;;;;;;9175751;19;20018;-69
2024/01/09 14:30:36;;;;;;;5.45;2.38;;;-0.10;74.60;;;;;;9173228;19;20389;-69
2024/01/09 14:33:45;;;;;;;5.53;2.20;;;-0.10;74.00;;;;;;9175729;19;20038;-69
2024/01/09 14:36:52;;;;;;;7.65;2.92;;;-0.10;73.80;;;;;;9175020;19;20022;-70
2024/01/09 14:39:58;;;;;;;6.82;3.05;;;-0.10;73.80;;;;;;9177596;19;20826;-73
2024/01/09 14:43:06;;;;;;;4.82;2.22;;;-0.10;73.80;;;;;;9176870;19;20372;-75
2024/01/09 14:46:15;;;;;;;4.50;2.40;;;0.00;73.80;;;;;;9174499;19;20029;-75
2024/01/09 14:49:29;;;;;;;13.15;3.30;;;-0.10;73.60;;;;;;9174194;19;20026;-75
2024/01/09 14:52:35;;;;;;;4.25;2.40;;;-0.10;74.20;;;;;;9173820;19;20018;-75
2024/01/09 14:55:42;;;;;;;4.88;2.08;;;-0.10;73.60;;;;;;9170965;19;20352;-73
2024/01/09 14:58:48;;;;;;;5.75;1.83;;;-0.10;73.60;;;;;;9174977;19;20021;-75
2024/01/09 15:01:55;;;;;;;2.40;1.70;;;-0.20;73.50;;;;;;9174778;19;20082;-75
2024/01/09 15:05:04;;;;;;;3.45;2.00;;;-0.20;73.50;;;;;;9176988;19;20469;-76
2024/01/09 15:08:12;;;;;;;4.07;2.25;;;-0.20;73.50;;;;;;9173827;19;20014;-73
2024/01/09 15:11:18;;;;;;;7.85;2.78;;;-0.20;73.60;;;;;;9175887;19;20014;-74
2024/01/09 15:14:25;;;;;;;6.22;1.88;;;-0.20;73.60;;;;;;9173671;19;20103;-73
2024/01/09 15:17:31;;;;;;;5.50;2.08;;;-0.30;73.50;;;;;;9172356;19;20026;-75
2024/01/09 15:20:41;;;;;;;5.63;2.53;;;-0.30;73.40;;;;;;9175485;19;20010;-75
2024/01/09 15:23:49;;;;;;;6.78;1.92;;;-0.30;73.40;;;;;;9175596;19;20432;-76
2024/01/09 15:26:56;;;;;;;4.28;2.35;;;-0.30;73.40;;;;;;9174152;19;20022;-74
2024/01/09 15:30:02;;;;;;;4.00;2.28;;;-0.30;73.30;;;;;;9175821;19;20022;-75
2024/01/09 15:33:09;;;;;;;4.95;2.28;;;-0.30;73.30;;;;;;9172866;19;20015;-74
2024/01/09 15:36:18;;;;;;;3.78;2.25;;;-0.40;73.20;;;;;;9174592;19;20025;-73
2024/01/09 15:39:26;;;;;;;3.35;2.10;;;-0.40;73.20;;;;;;9172808;19;20575;-74
2024/01/09 15:42:31;;;;;;;4.05;1.73;;;-0.40;73.20;;;;;;9171670;19;20026;-74
2024/01/09 15:45:39;;;;;;;4.40;2.25;;;-0.40;73.80;;;;;;9175619;19;20014;-72
2024/01/09 15:48:44;;;;;;;2.67;1.90;;;-0.40;73.10;;;;;;9178833;19;20376;-71
2024/01/09 15:51:54;;;;;;;4.75;1.85;;;-0.50;73.10;;;;;;9181440;19;20026;-70
2024/01/09 15:55:00;;;;;;;6.50;2.55;;;-0.50;73.00;;;;;;9178176;19;20030;-71
2024/01/09 15:58:10;;;;;;;8.05;2.03;;;-0.50;73.00;;;;;;9182525;19;20018;-70
2024/01/09 16:01:20;;;;;;;5.35;2.03;;;-0.50;73.00;;;;;;9182796;19;20015;-68
2024/01/09 16:04:31;;;;;;;4.35;2.10;;;-0.60;73.00;;;;;;9182285;19;20349;-69
2024/01/09 16:07:40;;;;;;;3.00;1.80;;;-0.60;73.00;;;;;;9175841;19;20014;-69
2024/01/09 16:10:47;;;;;;;4.65;2.45;;;-0.60;73.00;;;;;;9181527;19;20019;-69
2024/01/09 16:13:53;;;;;;;8.82;2.58;;;-0.60;73.00;;;;;;9183305;19;20011;-69
2024/01/09 16:17:01;;;;;;;5.97;2.50;;;-0.70;72.90;;;;;;9179810;19;20029;-69
2024/01/09 16:20:09;;;;;;;5.50;2.70;;;-0.70;73.00;;;;;;9180279;19;20018;-69